createdAt,value
2018-11-21T00:02:16.574Z,9.40
2018-11-21T00:04:58.564Z,9.50
2018-11-21T00:07:40.298Z,9.30
2018-11-21T00:13:03.766Z,9.30
2018-11-21T00:15:45.141Z,9.30
2018-11-21T00:18:27.613Z,9.20
2018-11-21T00:21:09.183Z,9.40
2018-11-21T00:23:50.555Z,9.10
2018-11-21T00:26:31.976Z,9.00
2018-11-21T00:29:13.422Z,9.00
2018-11-21T00:31:55.179Z,9.00
2018-11-21T00:34:36.829Z,9.00
2018-11-21T00:37:18.503Z,9.10
2018-11-21T00:40:00.311Z,8.80
2018-11-21T00:42:46.700Z,9.10
2018-11-21T00:45:24.659Z,8.80
2018-11-21T00:48:05.707Z,8.70
2018-11-21T00:50:47.451Z,8.70
2018-11-21T00:53:29.168Z,8.70
2018-11-21T00:56:10.975Z,8.60
2018-11-21T00:58:52.509Z,8.60
2018-11-21T01:01:34.185Z,8.70
2018-11-21T01:04:15.964Z,8.60
2018-11-21T01:06:57.526Z,8.80
2018-11-21T01:16:00.647Z,8.60
2018-11-21T01:18:42.445Z,8.70
2018-11-21T01:21:24.164Z,8.60
2018-11-21T01:30:26.653Z,8.50
2018-11-21T01:33:09.756Z,8.70
2018-11-21T01:35:49.200Z,8.50
2018-11-21T01:38:31.796Z,8.70
2018-11-21T01:41:14.005Z,8.60
2018-11-21T01:43:55.358Z,8.50
2018-11-21T01:46:38.433Z,8.60
2018-11-21T01:49:19.601Z,8.70
2018-11-21T01:52:01.165Z,8.60
2018-11-21T01:58:05.730Z,8.50
2018-11-21T02:00:47.931Z,8.60
2018-11-21T02:03:29.675Z,8.70
2018-11-21T02:06:11.523Z,8.70
2018-11-21T02:15:01.486Z,8.50
2018-11-21T02:17:42.601Z,8.50
2018-11-21T02:20:23.588Z,8.40
2018-11-21T02:23:04.066Z,8.50
2018-11-21T02:25:45.013Z,8.40
2018-11-21T02:28:27.665Z,8.70
2018-11-21T02:31:08.709Z,8.60
2018-11-21T02:33:50.199Z,8.30
2018-11-21T02:36:31.972Z,8.20
2018-11-21T02:39:13.243Z,8.20
2018-11-21T02:41:54.683Z,8.40
2018-11-21T03:03:23.886Z,8.30
2018-11-21T03:06:12.006Z,8.20
2018-11-21T03:12:04.242Z,8.20
2018-11-21T03:14:46.267Z,8.30
2018-11-21T03:17:34.608Z,8.20
2018-11-21T03:20:05.076Z,8.30
2018-11-21T03:22:38.778Z,8.10
2018-11-21T03:25:14.734Z,8.10
2018-11-21T03:28:03.858Z,8.10
2018-11-21T03:30:45.068Z,7.80
2018-11-21T03:40:07.250Z,8.00
2018-11-21T03:43:06.958Z,7.80
2018-11-21T03:45:48.607Z,7.70
2018-11-21T03:54:49.759Z,7.60
2018-11-21T03:57:57.482Z,7.60
2018-11-21T04:00:39.158Z,7.60
2018-11-21T04:18:55.297Z,7.70
2018-11-21T04:21:36.756Z,7.50
2018-11-21T04:24:18.576Z,7.50
2018-11-21T04:27:19.053Z,7.60
2018-11-21T04:30:00.214Z,7.40
2018-11-21T04:32:41.980Z,7.60
2018-11-21T04:35:23.706Z,7.40
2018-11-21T04:44:26.069Z,7.10
2018-11-21T04:47:08.558Z,7.40
2018-11-21T04:49:51.331Z,7.20
2018-11-21T04:52:34.151Z,7.30
2018-11-21T04:55:15.787Z,7.60
2018-11-21T04:57:57.333Z,7.10
2018-11-21T05:00:38.361Z,7.40
2018-11-21T05:03:20.989Z,7.10
2018-11-21T05:06:02.849Z,7.30
2018-11-21T05:14:54.979Z,7.00
2018-11-21T05:18:02.786Z,7.00
2018-11-21T05:20:44.087Z,7.20
2018-11-21T05:23:25.958Z,6.70
2018-11-21T05:26:08.022Z,6.80
2018-11-21T05:28:49.507Z,6.70
2018-11-21T05:31:31.145Z,6.90
2018-11-21T05:34:13.023Z,6.70
2018-11-21T05:36:54.727Z,6.90
2018-11-21T05:39:36.745Z,6.70
2018-11-21T05:42:18.239Z,6.70
2018-11-21T05:45:00.110Z,6.70
2018-11-21T05:47:41.821Z,6.70
2018-11-21T05:50:23.509Z,6.90
2018-11-21T05:53:06.387Z,6.80
2018-11-21T05:55:49.389Z,6.70
2018-11-21T06:04:39.277Z,6.70
2018-11-21T06:07:21.062Z,6.70
2018-11-21T06:10:02.763Z,6.70
2018-11-21T06:16:02.814Z,6.80
2018-11-21T06:25:03.694Z,7.10
2018-11-21T06:27:45.249Z,7.00
2018-11-21T06:30:26.469Z,7.30
2018-11-21T06:39:31.390Z,7.30
2018-11-21T06:48:36.976Z,7.30
2018-11-21T06:51:18.336Z,7.50
2018-11-21T06:54:00.260Z,7.60
2018-11-21T06:59:23.958Z,7.40
2018-11-21T07:02:06.550Z,7.60
2018-11-21T07:04:48.416Z,7.60
2018-11-21T07:07:30.084Z,7.60
2018-11-21T07:10:12.809Z,7.40
2018-11-21T07:12:54.131Z,7.40
2018-11-21T07:18:44.792Z,7.30
2018-11-21T07:21:26.233Z,7.60
2018-11-21T07:24:08.129Z,7.00
2018-11-21T07:26:49.924Z,7.60
2018-11-21T07:29:34.625Z,7.50
2018-11-21T07:32:13.490Z,7.30
2018-11-21T07:34:55.366Z,7.10
2018-11-21T07:37:37.036Z,7.20
2018-11-21T07:40:18.886Z,7.10
2018-11-21T07:43:00.676Z,7.30
2018-11-21T07:48:51.681Z,7.80
2018-11-21T07:51:33.688Z,7.40
2018-11-21T07:54:16.114Z,7.70
2018-11-21T07:57:16.668Z,7.60
2018-11-21T07:59:58.451Z,7.60
2018-11-21T08:02:40.838Z,7.60
2018-11-21T08:05:24.721Z,7.60
2018-11-21T08:27:09.686Z,7.50
2018-11-21T08:29:51.771Z,7.40
2018-11-21T08:32:32.835Z,7.50
2018-11-21T08:35:14.501Z,7.40
2018-11-21T08:37:57.349Z,7.40
2018-11-21T08:40:39.575Z,7.40
2018-11-21T08:43:20.875Z,7.40
2018-11-21T08:49:14.477Z,7.40
2018-11-21T08:52:22.170Z,7.30
2018-11-21T08:55:08.892Z,7.40
2018-11-21T08:58:04.172Z,7.30
2018-11-21T09:00:45.840Z,7.40
2018-11-21T09:03:27.379Z,7.40
2018-11-21T09:06:08.993Z,7.10
2018-11-21T09:12:08.919Z,7.30
2018-11-21T09:14:50.188Z,7.60
2018-11-21T09:17:31.052Z,7.30
2018-11-21T09:29:37.303Z,7.10
2018-11-21T09:32:18.272Z,7.10
2018-11-21T09:34:59.946Z,7.40
2018-11-21T09:41:18.224Z,7.00
2018-11-21T09:43:59.941Z,7.30
2018-11-21T09:46:41.523Z,7.10
2018-11-21T09:49:23.214Z,7.00
2018-11-21T09:52:04.965Z,7.30
2018-11-21T09:54:46.687Z,7.50
2018-11-21T10:00:38.947Z,7.00
2018-11-21T10:03:22.493Z,7.10
2018-11-21T10:06:03.583Z,7.20
2018-11-21T10:09:03.315Z,7.20
2018-11-21T10:11:44.268Z,7.10
2018-11-21T10:17:46.553Z,7.10
2018-11-21T10:26:36.127Z,6.90
2018-11-21T10:32:33.618Z,7.10
2018-11-21T10:38:18.454Z,7.20
2018-11-21T10:47:22.164Z,7.00
2018-11-21T10:52:46.512Z,6.80
2018-11-21T10:58:10.028Z,6.70
2018-11-21T11:17:12.501Z,6.90
2018-11-21T11:26:35.385Z,6.70
2018-11-21T11:29:35.112Z,7.20
2018-11-21T11:48:51.684Z,6.80
2018-11-21T11:51:51.431Z,7.00
2018-11-21T11:57:52.288Z,7.10
2018-11-21T12:10:00.203Z,7.00
2018-11-21T12:23:03.752Z,7.10
2018-11-21T12:29:25.957Z,7.10
2018-11-21T12:35:44.178Z,7.10
2018-11-21T12:41:37.095Z,7.30
2018-11-21T12:47:51.358Z,7.00
2018-11-21T13:00:38.040Z,7.10
2018-11-21T13:06:41.794Z,7.40
2018-11-21T13:29:17.025Z,7.30
2018-11-21T13:59:54.012Z,7.10
2018-11-21T14:02:35.322Z,7.30
2018-11-21T14:11:25.132Z,7.20
2018-11-21T14:14:05.978Z,7.20
2018-11-21T14:16:47.616Z,7.20
2018-11-21T14:22:12.042Z,7.10
2018-11-21T14:24:53.680Z,7.00
2018-11-21T14:27:35.423Z,7.00
2018-11-21T14:30:17.757Z,7.00
2018-11-21T14:32:58.818Z,7.00
2018-11-21T14:35:40.272Z,7.00
2018-11-21T14:38:21.962Z,7.10
2018-11-21T14:43:47.956Z,7.00
2018-11-21T14:49:45.964Z,7.00
2018-11-21T14:52:27.552Z,7.30
2018-11-21T15:04:20.869Z,7.00
2018-11-21T15:07:02.605Z,7.30
2018-11-21T15:09:45.545Z,7.60
2018-11-21T15:12:26.165Z,7.10
2018-11-21T15:15:26.384Z,7.10
2018-11-21T15:18:07.666Z,7.20
2018-11-21T15:20:49.550Z,6.90
2018-11-21T15:23:31.271Z,6.70
2018-11-21T15:26:13.190Z,7.00
2018-11-21T15:28:54.694Z,7.00
2018-11-21T15:31:36.474Z,7.00
2018-11-21T15:40:02.885Z,7.00
2018-11-21T15:42:44.051Z,7.00
2018-11-21T15:45:27.272Z,6.90
2018-11-21T15:50:50.378Z,7.10
2018-11-21T15:56:13.744Z,7.00
2018-11-21T15:58:55.685Z,7.00
2018-11-21T16:01:37.319Z,7.10
2018-11-21T16:04:18.932Z,7.10
2018-11-21T16:07:00.646Z,7.00
2018-11-21T16:09:42.190Z,7.00
2018-11-21T16:12:23.344Z,7.10
2018-11-21T16:15:04.970Z,7.10
2018-11-21T16:17:46.863Z,7.40
2018-11-21T16:20:28.335Z,7.30
2018-11-21T16:29:19.446Z,7.00
2018-11-21T16:32:00.479Z,7.00
2018-11-21T16:37:47.195Z,7.30
2018-11-21T16:43:10.308Z,7.10
2018-11-21T16:45:53.722Z,7.10
2018-11-21T16:54:43.932Z,7.50
2018-11-21T16:57:25.898Z,7.30
2018-11-21T17:06:15.271Z,7.60
2018-11-21T17:08:57.062Z,7.30
2018-11-21T17:11:38.699Z,7.40
2018-11-21T17:14:20.321Z,7.60
2018-11-21T17:17:01.911Z,7.20
2018-11-21T17:19:43.522Z,7.50
2018-11-21T17:22:26.142Z,7.30
2018-11-21T17:25:25.560Z,7.40
2018-11-21T17:28:06.736Z,7.30
2018-11-21T17:30:48.382Z,7.50
2018-11-21T17:33:31.245Z,7.90
2018-11-21T17:36:12.850Z,7.50
2018-11-21T17:38:54.501Z,7.60
2018-11-21T17:44:59.792Z,7.60
2018-11-21T17:47:40.715Z,7.50
2018-11-21T17:50:23.740Z,7.60
2018-11-21T17:53:06.090Z,7.60
2018-11-21T17:58:52.005Z,7.60
2018-11-21T18:01:34.702Z,7.90
2018-11-21T18:04:15.724Z,8.00
2018-11-21T18:06:57.160Z,7.90
2018-11-21T18:09:38.159Z,8.00
2018-11-21T18:12:19.828Z,7.70
2018-11-21T18:15:01.600Z,7.60
2018-11-21T18:17:44.160Z,7.70
2018-11-21T18:26:34.476Z,7.60
2018-11-21T18:29:35.085Z,7.40
2018-11-21T18:35:21.487Z,7.70
2018-11-21T18:46:52.415Z,7.00
2018-11-21T18:49:33.401Z,7.50
2018-11-21T18:52:14.988Z,7.30
2018-11-21T18:58:15.740Z,7.30
2018-11-21T19:00:57.647Z,7.30
2018-11-21T19:03:39.334Z,7.60
2018-11-21T19:06:21.173Z,7.60
2018-11-21T19:09:03.086Z,7.50
2018-11-21T19:11:44.903Z,7.70
2018-11-21T19:14:27.685Z,7.50
2018-11-21T19:17:08.888Z,7.90
2018-11-21T19:19:50.705Z,7.40
2018-11-21T19:25:14.485Z,7.90
2018-11-21T19:30:38.482Z,7.90
2018-11-21T19:33:18.692Z,7.70
2018-11-21T19:36:01.534Z,7.90
2018-11-21T19:38:42.883Z,7.80
2018-11-21T19:41:24.465Z,8.00
2018-11-21T19:44:05.483Z,8.00
2018-11-21T19:46:47.873Z,7.70
2018-11-21T19:49:33.271Z,7.80
2018-11-21T19:52:11.281Z,8.00
2018-11-21T19:54:52.887Z,8.00
2018-11-21T19:57:34.541Z,7.90
2018-11-21T20:00:17.765Z,8.10
2018-11-21T20:02:59.407Z,7.80
2018-11-21T20:05:41.034Z,8.00
2018-11-21T20:08:21.850Z,7.90
2018-11-21T20:13:45.441Z,8.00
2018-11-21T20:25:50.835Z,7.40
2018-11-21T20:28:32.465Z,7.60
2018-11-21T20:34:18.001Z,7.20
2018-11-21T20:36:58.896Z,7.00
2018-11-21T20:39:46.812Z,6.70
2018-11-21T20:42:21.929Z,6.70
2018-11-21T20:45:03.570Z,6.80
2018-11-21T20:47:45.026Z,6.80
2018-11-21T20:53:34.090Z,6.90
2018-11-21T20:59:31.751Z,6.70
2018-11-21T21:02:13.031Z,6.90
2018-11-21T21:04:55.763Z,6.70
2018-11-21T21:07:38.626Z,6.70
2018-11-21T21:10:24.604Z,6.70
2018-11-21T21:13:06.081Z,6.70
2018-11-21T21:15:47.694Z,6.90
2018-11-21T21:18:29.346Z,6.60
2018-11-21T21:21:15.684Z,6.60
2018-11-21T21:23:52.660Z,6.60
2018-11-21T21:26:34.194Z,6.60
2018-11-21T21:38:24.703Z,6.90
2018-11-21T21:41:06.360Z,7.00
2018-11-21T21:43:47.391Z,7.00
2018-11-21T21:46:28.441Z,7.20
2018-11-21T21:49:09.469Z,7.50
2018-11-21T21:51:51.204Z,7.30
2018-11-21T21:54:32.176Z,7.00
2018-11-21T21:57:15.104Z,7.60
2018-11-21T21:59:55.988Z,7.00
2018-11-21T22:02:38.546Z,7.00
2018-11-21T22:05:20.363Z,7.00
2018-11-21T22:08:02.088Z,7.20
2018-11-21T22:16:55.480Z,7.40
2018-11-21T22:19:37.243Z,7.30
2018-11-21T22:22:19.872Z,7.00
2018-11-21T22:25:01.369Z,6.80
2018-11-21T22:27:42.985Z,6.70
2018-11-21T22:30:25.101Z,6.60
2018-11-21T22:33:06.945Z,6.40
2018-11-21T22:35:48.376Z,6.60
2018-11-21T22:38:30.847Z,6.50
2018-11-21T22:41:11.559Z,6.60
2018-11-21T22:43:53.335Z,6.60
2018-11-21T22:46:34.962Z,6.80
2018-11-21T22:49:16.501Z,6.60
2018-11-21T22:51:58.189Z,6.80
2018-11-21T22:54:39.648Z,6.70
2018-11-21T22:57:21.398Z,6.60
2018-11-21T23:00:03.222Z,6.70
2018-11-21T23:02:44.814Z,6.80
2018-11-21T23:05:26.211Z,6.70
2018-11-21T23:08:08.167Z,6.80
2018-11-21T23:10:49.990Z,6.70
2018-11-21T23:13:31.683Z,6.70
2018-11-21T23:16:13.406Z,6.70
2018-11-21T23:18:55.111Z,6.70
2018-11-21T23:21:36.394Z,6.70
2018-11-21T23:24:18.734Z,6.70
2018-11-21T23:26:59.698Z,6.70
2018-11-21T23:29:41.400Z,6.60
2018-11-21T23:32:24.148Z,6.60
2018-11-21T23:35:05.656Z,6.60
2018-11-21T23:40:51.286Z,6.70
2018-11-21T23:43:33.066Z,6.70
2018-11-21T23:46:14.740Z,6.70
2018-11-21T23:48:56.791Z,6.60
2018-11-21T23:51:38.354Z,6.60
2018-11-21T23:54:20.914Z,6.70
2018-11-21T23:57:15.963Z,6.70
2018-11-21T23:59:44.246Z,6.60
